createdAt,value
2023-03-31T00:01:01.069Z,6.47
2023-03-31T00:03:36.436Z,6.48
2023-03-31T00:06:11.456Z,6.49
2023-03-31T00:08:45.654Z,6.50
2023-03-31T00:11:18.148Z,6.50
2023-03-31T00:13:51.106Z,6.52
2023-03-31T00:16:24.222Z,6.54
2023-03-31T00:18:56.853Z,6.58
2023-03-31T00:21:37.239Z,6.59
2023-03-31T00:24:10.895Z,6.60
2023-03-31T00:26:43.836Z,6.60
2023-03-31T00:29:16.487Z,6.56
2023-03-31T00:31:49.003Z,6.54
2023-03-31T00:34:21.712Z,6.51
2023-03-31T00:36:56.833Z,6.47
2023-03-31T00:42:13.944Z,6.36
2023-03-31T00:45:20.532Z,6.31
2023-03-31T00:48:04.511Z,6.31
2023-03-31T00:50:40.881Z,6.28
2023-03-31T00:53:17.229Z,6.23
2023-03-31T00:55:57.122Z,6.15
2023-03-31T00:58:31.864Z,6.11
2023-03-31T01:01:04.526Z,6.07
2023-03-31T01:03:38.567Z,6.06
2023-03-31T01:06:25.554Z,6.07
2023-03-31T01:08:58.038Z,6.09
2023-03-31T01:11:31.201Z,6.12
2023-03-31T01:14:04.498Z,6.11
2023-03-31T01:16:38.768Z,6.11
2023-03-31T01:19:16.333Z,6.10
2023-03-31T01:22:13.166Z,6.11
2023-03-31T01:25:01.072Z,6.14
2023-03-31T01:28:07.912Z,6.10
2023-03-31T01:31:22.082Z,6.06
2023-03-31T01:34:18.098Z,6.04
2023-03-31T01:37:01.986Z,6.02
2023-03-31T01:40:20.474Z,6.02
2023-03-31T01:42:59.363Z,6.02
2023-03-31T01:45:43.151Z,6.04
2023-03-31T01:49:01.381Z,6.05
2023-03-31T01:51:38.541Z,6.03
2023-03-31T01:54:25.664Z,5.99
2023-03-31T01:57:24.574Z,5.94
2023-03-31T02:00:18.472Z,5.93
2023-03-31T02:03:19.287Z,5.90
2023-03-31T02:06:01.950Z,5.90
2023-03-31T02:08:57.401Z,5.85
2023-03-31T02:11:32.017Z,5.83
2023-03-31T02:14:07.765Z,5.81
2023-03-31T02:16:58.958Z,5.76
2023-03-31T02:19:40.986Z,5.75
2023-03-31T02:22:14.133Z,5.74
2023-03-31T02:24:46.659Z,5.74
2023-03-31T02:27:24.090Z,5.73
2023-03-31T02:29:57.194Z,5.72
2023-03-31T02:32:44.123Z,5.71
2023-03-31T02:35:21.693Z,5.73
2023-03-31T02:37:54.272Z,5.75
2023-03-31T02:40:27.934Z,5.77
2023-03-31T02:43:00.522Z,5.79
2023-03-31T02:45:52.334Z,5.83
2023-03-31T02:48:35.345Z,5.82
2023-03-31T02:51:28.473Z,5.82
2023-03-31T02:54:54.853Z,5.79
2023-03-31T02:58:06.598Z,5.82
2023-03-31T03:01:02.807Z,5.84
2023-03-31T03:04:06.489Z,5.82
2023-03-31T03:07:00.556Z,5.81
2023-03-31T03:09:47.059Z,5.78
2023-03-31T03:13:07.050Z,5.77
2023-03-31T03:15:47.371Z,5.76
2023-03-31T03:18:20.446Z,5.72
2023-03-31T03:20:53.750Z,5.72
2023-03-31T03:23:26.781Z,5.74
2023-03-31T03:25:59.208Z,5.76
2023-03-31T03:28:32.011Z,5.79
2023-03-31T03:31:04.817Z,5.83
2023-03-31T03:33:38.448Z,5.85
2023-03-31T03:36:11.747Z,5.86
2023-03-31T03:38:45.217Z,5.86
2023-03-31T03:41:18.101Z,5.84
2023-03-31T03:43:50.893Z,5.77
2023-03-31T03:46:23.702Z,5.77
2023-03-31T03:48:56.544Z,5.79
2023-03-31T03:51:29.394Z,5.80
2023-03-31T03:54:03.345Z,5.86
2023-03-31T03:56:36.771Z,5.88
2023-03-31T03:59:09.726Z,5.90
2023-03-31T04:01:42.810Z,5.90
2023-03-31T04:04:16.677Z,5.91
2023-03-31T04:06:49.710Z,5.90
2023-03-31T04:09:22.306Z,5.93
2023-03-31T04:11:55.731Z,5.93
2023-03-31T04:14:28.686Z,5.92
2023-03-31T04:17:02.777Z,5.93
2023-03-31T04:19:35.674Z,5.93
2023-03-31T04:22:10.113Z,5.96
2023-03-31T04:24:44.538Z,5.95
2023-03-31T04:27:17.398Z,5.98
2023-03-31T04:29:51.997Z,5.97
2023-03-31T04:32:24.550Z,5.96
2023-03-31T04:34:58.694Z,5.95
2023-03-31T04:37:37.679Z,5.94
2023-03-31T04:40:11.985Z,5.96
2023-03-31T04:42:46.185Z,5.97
2023-03-31T04:45:18.929Z,5.98
2023-03-31T04:47:52.324Z,6.01
2023-03-31T04:50:25.340Z,6.04
2023-03-31T04:52:58.131Z,6.04
2023-03-31T04:55:31.652Z,6.06
2023-03-31T04:58:05.408Z,6.09
2023-03-31T05:00:38.320Z,6.12
2023-03-31T05:03:11.102Z,6.19
2023-03-31T05:05:44.016Z,6.22
2023-03-31T05:08:16.970Z,6.25
2023-03-31T05:10:50.563Z,6.31
2023-03-31T05:13:24.337Z,6.33
2023-03-31T05:15:56.768Z,6.33
2023-03-31T05:18:30.536Z,6.29
2023-03-31T05:21:14.886Z,6.26
2023-03-31T05:23:49.322Z,6.19
2023-03-31T05:26:23.188Z,6.11
2023-03-31T05:28:55.853Z,6.05
2023-03-31T05:31:28.244Z,6.02
2023-03-31T05:36:45.303Z,6.04
2023-03-31T05:39:18.960Z,6.04
2023-03-31T05:41:51.312Z,6.09
2023-03-31T05:44:24.048Z,6.12
2023-03-31T05:46:56.682Z,6.16
2023-03-31T05:49:29.439Z,6.17
2023-03-31T05:52:02.093Z,6.14
2023-03-31T05:54:34.696Z,6.12
2023-03-31T05:57:07.546Z,6.14
2023-03-31T05:59:41.808Z,6.17
2023-03-31T06:02:17.153Z,6.16
2023-03-31T06:04:50.325Z,6.15
2023-03-31T06:07:25.321Z,6.16
2023-03-31T06:09:59.172Z,6.16
2023-03-31T06:12:33.199Z,6.30
2023-03-31T06:15:06.907Z,6.47
2023-03-31T06:17:41.378Z,6.61
2023-03-31T06:20:27.074Z,6.70
2023-03-31T06:22:49.230Z,6.73
2023-03-31T06:25:22.150Z,6.74
2023-03-31T06:27:54.771Z,6.70
2023-03-31T06:30:27.994Z,6.72
2023-03-31T06:33:01.516Z,6.79
2023-03-31T06:35:34.218Z,6.87
2023-03-31T06:38:06.670Z,6.96
2023-03-31T06:40:39.081Z,7.05
2023-03-31T06:43:11.488Z,7.15
2023-03-31T06:45:45.892Z,7.26
2023-03-31T06:48:18.485Z,7.34
2023-03-31T06:50:50.889Z,7.42
2023-03-31T06:53:23.578Z,7.46
2023-03-31T06:55:56.387Z,7.52
2023-03-31T06:58:31.455Z,7.58
2023-03-31T07:01:05.963Z,7.65
2023-03-31T07:03:39.788Z,7.73
2023-03-31T07:06:12.543Z,7.82
2023-03-31T07:08:45.530Z,7.91
2023-03-31T07:11:21.125Z,8.00
2023-03-31T07:13:53.457Z,8.11
2023-03-31T07:16:26.382Z,8.24
2023-03-31T07:19:00.239Z,8.35
2023-03-31T07:21:33.228Z,8.46
2023-03-31T07:24:06.021Z,8.53
2023-03-31T07:26:39.969Z,8.63
2023-03-31T07:29:12.679Z,8.72
2023-03-31T07:31:47.813Z,8.84
2023-03-31T07:34:21.355Z,8.95
2023-03-31T07:36:58.311Z,9.04
2023-03-31T07:39:31.143Z,9.13
2023-03-31T07:42:03.971Z,9.41
2023-03-31T07:44:37.710Z,9.84
2023-03-31T07:47:10.328Z,10.32
2023-03-31T07:49:42.706Z,10.64
2023-03-31T07:52:16.617Z,10.81
2023-03-31T07:54:49.137Z,10.91
2023-03-31T07:57:23.334Z,11.14
2023-03-31T07:59:57.051Z,11.40
2023-03-31T08:02:30.235Z,11.30
2023-03-31T08:05:03.395Z,11.14
2023-03-31T08:07:38.207Z,10.99
2023-03-31T08:10:15.012Z,10.82
2023-03-31T08:12:49.168Z,10.75
2023-03-31T08:15:22.012Z,10.75
2023-03-31T08:17:55.589Z,10.71
2023-03-31T08:20:28.542Z,10.67
2023-03-31T08:23:01.817Z,10.67
2023-03-31T08:25:34.871Z,10.62
2023-03-31T08:28:09.054Z,10.52
2023-03-31T08:30:43.203Z,10.43
2023-03-31T08:33:16.315Z,10.36
2023-03-31T08:35:49.469Z,10.33
2023-03-31T08:38:23.049Z,10.31
2023-03-31T08:41:03.283Z,10.24
2023-03-31T08:43:43.263Z,10.19
2023-03-31T08:46:18.942Z,10.17
2023-03-31T08:48:58.898Z,10.18
2023-03-31T08:51:41.403Z,10.22
2023-03-31T08:54:27.750Z,10.24
2023-03-31T08:57:00.848Z,10.25
2023-03-31T08:59:45.685Z,10.27
2023-03-31T09:02:58.799Z,10.23
2023-03-31T09:06:00.213Z,10.22
2023-03-31T09:08:38.342Z,10.18
2023-03-31T09:11:23.512Z,10.20
2023-03-31T09:14:36.929Z,10.22
2023-03-31T09:17:35.293Z,10.25
2023-03-31T09:20:16.350Z,10.31
2023-03-31T09:22:59.725Z,10.32
2023-03-31T09:25:56.144Z,10.31
2023-03-31T09:28:38.598Z,10.29
2023-03-31T09:31:18.029Z,10.27
2023-03-31T09:33:53.940Z,10.23
2023-03-31T09:36:26.584Z,10.15
2023-03-31T09:38:59.319Z,10.14
2023-03-31T09:41:34.390Z,10.16
2023-03-31T09:44:10.751Z,10.18
2023-03-31T09:46:44.096Z,10.23
2023-03-31T09:49:20.775Z,10.30
2023-03-31T09:52:03.579Z,10.36
2023-03-31T09:54:56.912Z,10.45
2023-03-31T09:57:36.362Z,10.52
2023-03-31T10:00:18.055Z,10.59
2023-03-31T10:02:58.981Z,10.66
2023-03-31T10:05:52.359Z,10.70
2023-03-31T10:08:37.513Z,10.73
2023-03-31T10:11:12.742Z,10.75
2023-03-31T10:14:14.529Z,10.75
2023-03-31T10:16:55.980Z,10.75
2023-03-31T10:19:35.991Z,10.72
2023-03-31T10:22:25.222Z,10.73
2023-03-31T10:25:19.480Z,10.74
2023-03-31T10:27:55.064Z,10.77
2023-03-31T10:30:34.109Z,10.84
2023-03-31T10:36:00.742Z,11.03
2023-03-31T10:38:43.780Z,11.06
2023-03-31T10:41:38.362Z,11.08
2023-03-31T10:44:32.004Z,11.07
2023-03-31T10:47:21.372Z,11.11
2023-03-31T10:49:57.958Z,11.17
2023-03-31T10:52:31.331Z,11.19
2023-03-31T10:55:04.328Z,11.19
2023-03-31T10:57:47.912Z,11.18
2023-03-31T11:00:46.251Z,11.16
2023-03-31T11:03:54.713Z,11.20
2023-03-31T11:06:56.840Z,11.25
2023-03-31T11:09:57.989Z,11.32
2023-03-31T11:12:45.202Z,11.34
2023-03-31T11:15:28.527Z,11.41
2023-03-31T11:18:09.711Z,11.48
2023-03-31T11:21:05.971Z,11.52
2023-03-31T11:24:06.738Z,11.51
2023-03-31T11:27:06.499Z,11.54
2023-03-31T11:29:50.066Z,11.59
2023-03-31T11:32:44.312Z,11.68
2023-03-31T11:35:39.647Z,11.74
2023-03-31T11:38:29.310Z,11.85
2023-03-31T11:41:14.956Z,12.04
2023-03-31T11:43:54.876Z,12.20
2023-03-31T11:46:41.161Z,12.40
2023-03-31T11:49:26.627Z,12.47
2023-03-31T11:52:14.548Z,12.54
2023-03-31T11:55:19.154Z,12.54
2023-03-31T11:58:11.812Z,12.44
2023-03-31T12:01:00.187Z,12.36
2023-03-31T12:03:56.100Z,12.37
2023-03-31T12:06:32.846Z,12.25
2023-03-31T12:09:29.701Z,12.09
2023-03-31T12:12:17.508Z,11.95
2023-03-31T12:14:54.643Z,11.86
2023-03-31T12:17:29.790Z,11.87
2023-03-31T12:20:10.962Z,11.90
2023-03-31T12:22:48.217Z,11.92
2023-03-31T12:25:25.513Z,11.83
2023-03-31T12:27:59.055Z,11.74
2023-03-31T12:30:42.481Z,11.71
2023-03-31T12:33:34.774Z,11.69
2023-03-31T12:36:15.983Z,11.68
2023-03-31T12:39:18.588Z,11.64
2023-03-31T12:42:43.415Z,11.59
2023-03-31T12:45:29.774Z,11.51
2023-03-31T12:48:27.934Z,11.45
2023-03-31T12:51:11.717Z,11.38
2023-03-31T12:54:22.871Z,11.36
2023-03-31T12:57:08.077Z,11.34
2023-03-31T12:59:41.996Z,11.30
2023-03-31T13:02:19.534Z,11.28
2023-03-31T13:04:53.579Z,11.26
2023-03-31T13:07:33.912Z,11.25
2023-03-31T13:10:29.303Z,11.24
2023-03-31T13:13:17.038Z,11.22
2023-03-31T13:15:58.654Z,11.21
2023-03-31T13:18:34.196Z,11.24
2023-03-31T13:21:08.528Z,11.24
2023-03-31T13:23:42.196Z,11.25
2023-03-31T13:26:38.499Z,11.21
2023-03-31T13:29:19.902Z,11.18
2023-03-31T13:32:06.024Z,11.16
2023-03-31T13:35:07.452Z,11.17
2023-03-31T13:38:05.886Z,11.14
2023-03-31T13:41:11.772Z,11.12
2023-03-31T13:44:26.083Z,11.12
2023-03-31T13:47:44.542Z,11.07
2023-03-31T13:50:40.200Z,11.03
2023-03-31T13:53:46.258Z,11.00
2023-03-31T13:56:59.931Z,10.96
2023-03-31T14:00:01.177Z,10.90
2023-03-31T14:02:56.302Z,10.85
2023-03-31T14:05:37.312Z,10.81
2023-03-31T14:08:27.792Z,10.77
2023-03-31T14:11:14.402Z,10.76
2023-03-31T14:14:01.919Z,10.73
2023-03-31T14:16:42.065Z,10.68
2023-03-31T14:19:47.740Z,10.59
2023-03-31T14:22:34.243Z,10.46
2023-03-31T14:25:51.170Z,10.36
2023-03-31T14:28:58.372Z,10.33
2023-03-31T14:31:41.465Z,10.30
2023-03-31T14:34:43.001Z,10.26
2023-03-31T14:37:18.045Z,10.26
2023-03-31T14:39:56.828Z,10.24
2023-03-31T14:42:40.007Z,10.23
2023-03-31T14:45:25.846Z,10.19
2023-03-31T14:48:01.380Z,10.14
2023-03-31T14:50:36.646Z,10.06
2023-03-31T14:53:22.182Z,9.98
2023-03-31T14:56:03.717Z,9.94
2023-03-31T14:58:40.557Z,9.83
2023-03-31T15:01:17.704Z,9.72
2023-03-31T15:03:51.964Z,9.63
2023-03-31T15:06:26.939Z,9.59
2023-03-31T15:08:59.592Z,9.53
2023-03-31T15:11:32.748Z,9.47
2023-03-31T15:14:06.109Z,9.44
2023-03-31T15:16:43.030Z,9.43
2023-03-31T15:19:20.038Z,9.39
2023-03-31T15:22:04.461Z,9.35
2023-03-31T15:24:37.450Z,9.28
2023-03-31T15:27:29.767Z,9.19
2023-03-31T15:29:57.570Z,9.16
2023-03-31T15:32:32.785Z,9.12
2023-03-31T15:35:20.980Z,9.06
2023-03-31T15:37:42.842Z,8.98
2023-03-31T15:40:25.372Z,8.92
2023-03-31T15:43:25.771Z,8.87
2023-03-31T15:46:01.641Z,8.88
2023-03-31T15:48:36.912Z,8.87
2023-03-31T15:51:36.479Z,8.83
2023-03-31T15:54:36.134Z,8.82
2023-03-31T15:57:10.438Z,8.82
2023-03-31T15:59:56.772Z,8.81
2023-03-31T16:02:43.210Z,8.78
2023-03-31T16:05:27.574Z,8.82
2023-03-31T16:08:01.850Z,8.76
2023-03-31T16:10:35.790Z,8.71
2023-03-31T16:13:10.654Z,8.69
2023-03-31T16:15:48.320Z,8.68
2023-03-31T16:18:34.760Z,8.66
2023-03-31T16:21:09.348Z,8.65
2023-03-31T16:23:43.935Z,8.67
2023-03-31T16:26:24.101Z,8.71
2023-03-31T16:28:57.742Z,8.71
2023-03-31T16:31:40.571Z,8.71
2023-03-31T16:34:13.865Z,8.74
2023-03-31T16:36:46.659Z,8.76
2023-03-31T16:39:19.998Z,8.76
2023-03-31T16:41:52.458Z,8.77
2023-03-31T16:44:24.888Z,8.78
2023-03-31T16:46:58.462Z,8.78
2023-03-31T16:49:31.639Z,8.78
2023-03-31T16:52:06.796Z,8.80
2023-03-31T16:54:39.958Z,8.82
2023-03-31T16:57:13.968Z,8.83
2023-03-31T16:59:46.846Z,8.85
2023-03-31T17:02:21.851Z,8.86
2023-03-31T17:04:59.469Z,8.86
2023-03-31T17:07:29.099Z,8.85
2023-03-31T17:10:02.241Z,8.85
2023-03-31T17:12:36.286Z,8.84
2023-03-31T17:15:10.724Z,8.83
2023-03-31T17:17:44.618Z,8.85
2023-03-31T17:20:17.685Z,8.86
2023-03-31T17:22:51.071Z,8.87
2023-03-31T17:25:23.567Z,8.90
2023-03-31T17:27:56.478Z,8.90
2023-03-31T17:30:29.344Z,8.91
2023-03-31T17:33:02.844Z,8.93
2023-03-31T17:35:35.781Z,8.96
2023-03-31T17:38:09.862Z,8.99
2023-03-31T17:40:43.464Z,9.01
2023-03-31T17:43:17.802Z,9.01
2023-03-31T17:45:51.293Z,9.00
2023-03-31T17:48:26.701Z,9.02
2023-03-31T17:50:59.689Z,9.03
2023-03-31T17:53:32.935Z,9.02
2023-03-31T17:56:06.858Z,8.99
2023-03-31T17:58:40.431Z,9.02
2023-03-31T18:01:13.292Z,9.05
2023-03-31T18:03:46.580Z,9.06
2023-03-31T18:06:19.717Z,9.10
2023-03-31T18:08:53.436Z,9.12
2023-03-31T18:11:27.643Z,9.12
2023-03-31T18:14:02.826Z,9.13
2023-03-31T18:16:37.396Z,9.12
2023-03-31T18:19:10.160Z,9.14
2023-03-31T18:21:43.445Z,9.19
2023-03-31T18:24:17.142Z,9.21
2023-03-31T18:26:50.303Z,9.18
2023-03-31T18:29:23.666Z,9.22
2023-03-31T18:31:57.818Z,9.24
2023-03-31T18:34:31.489Z,9.27
2023-03-31T18:37:05.710Z,9.30
2023-03-31T18:39:38.522Z,9.31
2023-03-31T18:42:12.616Z,9.34
2023-03-31T18:44:46.590Z,9.37
2023-03-31T18:47:19.920Z,9.39
2023-03-31T18:49:54.694Z,9.41
2023-03-31T18:52:27.466Z,9.41
2023-03-31T18:55:00.813Z,9.39
2023-03-31T18:57:34.219Z,9.36
2023-03-31T19:00:10.273Z,9.36
2023-03-31T19:02:46.894Z,9.36
2023-03-31T19:05:20.177Z,9.35
2023-03-31T19:07:54.379Z,9.32
2023-03-31T19:10:27.853Z,9.33
2023-03-31T19:13:01.091Z,9.38
2023-03-31T19:15:34.130Z,9.42
2023-03-31T19:18:07.368Z,9.44
2023-03-31T19:20:41.140Z,9.41
2023-03-31T19:23:13.751Z,9.37
2023-03-31T19:25:46.710Z,9.35
2023-03-31T19:28:19.559Z,9.37
2023-03-31T19:30:53.634Z,9.39
2023-03-31T19:33:28.381Z,9.40
2023-03-31T19:36:01.030Z,9.41
2023-03-31T19:38:35.524Z,9.43
2023-03-31T19:41:09.161Z,9.45
2023-03-31T19:43:42.011Z,9.45
2023-03-31T19:46:15.433Z,9.44
2023-03-31T19:48:48.718Z,9.47
2023-03-31T19:51:22.230Z,9.49
2023-03-31T19:53:57.066Z,9.42
2023-03-31T19:56:31.745Z,9.38
2023-03-31T19:59:05.705Z,9.36
2023-03-31T20:01:39.203Z,9.37
2023-03-31T20:04:14.386Z,9.39
2023-03-31T20:06:47.590Z,9.43
2023-03-31T20:09:20.912Z,9.41
2023-03-31T20:11:54.508Z,9.33
2023-03-31T20:14:28.509Z,9.32
2023-03-31T20:17:03.346Z,9.33
2023-03-31T20:19:36.440Z,9.32
2023-03-31T20:22:09.210Z,9.29
2023-03-31T20:24:42.558Z,9.28
2023-03-31T20:27:16.061Z,9.28
2023-03-31T20:29:49.174Z,9.28
2023-03-31T20:32:22.554Z,9.29
2023-03-31T20:34:55.441Z,9.27
2023-03-31T20:37:28.792Z,9.32
2023-03-31T20:40:01.554Z,9.36
2023-03-31T20:42:34.869Z,9.41
2023-03-31T20:45:08.928Z,9.47
2023-03-31T20:47:41.884Z,9.52
2023-03-31T20:50:15.436Z,9.56
2023-03-31T20:52:49.136Z,9.58
2023-03-31T20:55:22.064Z,9.61
2023-03-31T20:57:55.192Z,9.63
2023-03-31T21:00:27.891Z,9.60
2023-03-31T21:03:02.701Z,9.55
2023-03-31T21:05:44.473Z,9.54
2023-03-31T21:08:17.067Z,9.52
2023-03-31T21:10:50.100Z,9.52
2023-03-31T21:13:24.196Z,9.56
2023-03-31T21:15:57.135Z,9.60
2023-03-31T21:18:31.834Z,9.64
2023-03-31T21:21:07.181Z,9.64
2023-03-31T21:23:40.424Z,9.63
2023-03-31T21:26:14.716Z,9.63
2023-03-31T21:28:48.319Z,9.62
2023-03-31T21:31:22.640Z,9.61
2023-03-31T21:33:57.902Z,9.61
2023-03-31T21:36:30.894Z,9.58
2023-03-31T21:39:03.472Z,9.56
2023-03-31T21:41:37.877Z,9.49
2023-03-31T21:44:10.618Z,9.44
2023-03-31T21:46:45.219Z,9.41
2023-03-31T21:49:18.691Z,9.37
2023-03-31T21:51:51.883Z,9.31
2023-03-31T21:54:24.342Z,9.27
2023-03-31T21:56:57.245Z,9.21
2023-03-31T21:59:29.643Z,9.16
2023-03-31T22:02:02.542Z,9.14
2023-03-31T22:04:35.748Z,9.12
2023-03-31T22:07:08.224Z,9.06
2023-03-31T22:09:41.478Z,9.03
2023-03-31T22:12:14.795Z,9.02
2023-03-31T22:14:48.243Z,9.03
2023-03-31T22:17:21.203Z,8.98
2023-03-31T22:19:54.013Z,8.95
2023-03-31T22:22:26.690Z,8.95
2023-03-31T22:24:59.642Z,8.96
2023-03-31T22:27:32.696Z,8.96
2023-03-31T22:30:06.798Z,8.96
2023-03-31T22:32:39.456Z,8.97
2023-03-31T22:35:12.362Z,8.96
2023-03-31T22:37:44.893Z,8.95
2023-03-31T22:40:17.790Z,8.93
2023-03-31T22:42:50.935Z,8.93
2023-03-31T22:45:23.664Z,8.88
2023-03-31T22:47:56.751Z,8.89
2023-03-31T22:50:29.428Z,8.90
2023-03-31T22:53:02.110Z,8.93
2023-03-31T22:55:34.876Z,8.93
2023-03-31T22:58:07.565Z,8.90
2023-03-31T23:00:41.410Z,8.87
2023-03-31T23:03:14.816Z,8.88
2023-03-31T23:05:47.453Z,8.86
2023-03-31T23:08:20.443Z,8.81
2023-03-31T23:10:57.934Z,8.78
2023-03-31T23:13:32.156Z,8.74
2023-03-31T23:16:13.783Z,8.72
2023-03-31T23:18:47.705Z,8.68
2023-03-31T23:21:25.897Z,8.63
2023-03-31T23:24:02.560Z,8.62
2023-03-31T23:26:36.071Z,8.62
2023-03-31T23:29:09.922Z,8.64
2023-03-31T23:31:42.553Z,8.66
2023-03-31T23:34:15.209Z,8.64
2023-03-31T23:36:47.973Z,8.62
2023-03-31T23:39:21.687Z,8.67
2023-03-31T23:41:54.622Z,8.67
2023-03-31T23:44:27.448Z,8.68
2023-03-31T23:47:00.373Z,8.71
2023-03-31T23:49:33.795Z,8.75
2023-03-31T23:52:06.898Z,8.84
2023-03-31T23:54:39.331Z,8.86
2023-03-31T23:57:11.977Z,8.82
2023-03-31T23:59:45.274Z,8.80
